createdAt,value
2022-10-13T00:01:18.157Z,5.40
2022-10-13T00:03:47.394Z,5.15
2022-10-13T00:06:19.364Z,4.80
2022-10-13T00:08:48.980Z,4.90
2022-10-13T00:11:23.427Z,5.18
2022-10-13T00:13:54.100Z,4.80
2022-10-13T00:16:27.626Z,4.72
2022-10-13T00:18:58.350Z,4.17
2022-10-13T00:21:28.361Z,4.68
2022-10-13T00:23:57.695Z,4.75
2022-10-13T00:26:27.300Z,6.10
2022-10-13T00:28:55.730Z,4.93
2022-10-13T00:31:26.784Z,4.67
2022-10-13T00:33:56.067Z,5.97
2022-10-13T00:36:24.869Z,5.10
2022-10-13T00:38:54.546Z,4.95
2022-10-13T00:41:23.611Z,5.93
2022-10-13T00:43:57.301Z,5.70
2022-10-13T00:46:27.259Z,5.47
2022-10-13T00:48:56.133Z,4.93
2022-10-13T00:51:29.856Z,5.32
2022-10-13T00:54:00.953Z,5.43
2022-10-13T00:56:30.831Z,6.00
2022-10-13T00:58:59.727Z,6.32
2022-10-13T01:01:27.827Z,6.05
2022-10-13T01:03:55.922Z,6.32
2022-10-13T01:06:24.507Z,7.00
2022-10-13T01:08:52.582Z,6.50
2022-10-13T01:11:36.704Z,6.15
2022-10-13T01:14:13.103Z,6.35
2022-10-13T01:16:53.664Z,5.75
2022-10-13T01:19:39.778Z,6.28
2022-10-13T01:22:22.666Z,5.37
2022-10-13T01:25:03.133Z,5.43
2022-10-13T01:27:45.098Z,5.35
2022-10-13T01:30:20.022Z,5.53
2022-10-13T01:33:11.906Z,5.78
2022-10-13T01:35:54.909Z,7.23
2022-10-13T01:38:30.452Z,7.03
2022-10-13T01:41:06.765Z,7.40
2022-10-13T01:43:41.566Z,7.80
2022-10-13T01:46:15.617Z,8.18
2022-10-13T01:48:46.578Z,6.67
2022-10-13T01:51:18.199Z,6.93
2022-10-13T01:53:48.434Z,6.50
2022-10-13T01:56:16.859Z,7.68
2022-10-13T01:58:45.579Z,7.68
2022-10-13T02:01:33.061Z,8.40
2022-10-13T02:04:13.130Z,7.32
2022-10-13T02:06:46.039Z,8.23
2022-10-13T02:09:19.790Z,7.75
2022-10-13T02:11:52.501Z,7.60
2022-10-13T02:14:27.623Z,7.73
2022-10-13T02:16:59.833Z,8.57
2022-10-13T02:19:30.029Z,8.55
2022-10-13T02:21:59.872Z,8.13
2022-10-13T02:24:28.226Z,9.48
2022-10-13T02:26:56.857Z,8.40
2022-10-13T02:29:25.733Z,8.75
2022-10-13T02:31:54.967Z,9.15
2022-10-13T02:34:24.916Z,7.90
2022-10-13T02:36:53.147Z,9.25
2022-10-13T02:39:21.149Z,8.53
2022-10-13T02:41:49.559Z,9.43
2022-10-13T02:44:17.592Z,8.50
2022-10-13T02:46:45.916Z,8.15
2022-10-13T02:49:14.219Z,8.45
2022-10-13T02:51:44.284Z,9.50
2022-10-13T02:54:12.349Z,8.27
2022-10-13T02:56:40.713Z,9.25
2022-10-13T02:59:08.928Z,8.80
2022-10-13T03:01:41.547Z,8.90
2022-10-13T03:04:10.738Z,8.47
2022-10-13T03:06:39.015Z,8.23
2022-10-13T03:09:08.921Z,8.27
2022-10-13T03:11:37.854Z,8.32
2022-10-13T03:14:06.154Z,9.52
2022-10-13T03:16:34.465Z,9.40
2022-10-13T03:19:02.424Z,9.52
2022-10-13T03:21:31.095Z,10.32
2022-10-13T03:23:59.651Z,10.35
2022-10-13T03:26:29.482Z,11.27
2022-10-13T03:28:57.843Z,9.93
2022-10-13T03:31:25.788Z,10.05
2022-10-13T03:33:56.585Z,10.20
2022-10-13T03:36:25.141Z,10.32
2022-10-13T03:38:55.600Z,10.20
2022-10-13T03:41:24.118Z,9.80
2022-10-13T03:43:53.313Z,10.18
2022-10-13T03:46:21.794Z,11.63
2022-10-13T03:48:50.083Z,10.50
2022-10-13T03:51:20.249Z,9.98
2022-10-13T03:53:49.493Z,9.67
2022-10-13T03:56:20.176Z,10.48
2022-10-13T03:58:48.140Z,9.65
2022-10-13T04:01:18.543Z,10.95
2022-10-13T04:03:46.417Z,9.90
2022-10-13T04:06:15.474Z,10.33
2022-10-13T04:08:46.108Z,11.32
2022-10-13T04:11:17.042Z,11.88
2022-10-13T04:13:46.074Z,10.48
2022-10-13T04:16:16.370Z,10.48
2022-10-13T04:18:46.617Z,10.17
2022-10-13T04:21:16.591Z,9.90
2022-10-13T04:23:45.011Z,10.80
2022-10-13T04:26:18.554Z,12.20
2022-10-13T04:28:51.657Z,11.98
2022-10-13T04:31:22.141Z,13.47
2022-10-13T04:33:52.758Z,12.00
2022-10-13T04:36:20.637Z,10.57
2022-10-13T04:38:48.944Z,10.00
2022-10-13T04:41:18.260Z,11.07
2022-10-13T04:43:49.551Z,10.37
2022-10-13T04:46:21.265Z,10.95
2022-10-13T04:48:49.607Z,11.82
2022-10-13T04:51:21.608Z,10.32
2022-10-13T04:53:49.754Z,10.65
2022-10-13T04:56:19.059Z,11.37
2022-10-13T04:58:47.678Z,11.73
2022-10-13T05:01:21.795Z,13.77
2022-10-13T05:03:53.690Z,12.25
2022-10-13T05:06:26.315Z,11.32
2022-10-13T05:08:54.637Z,11.37
2022-10-13T05:11:22.487Z,11.05
2022-10-13T05:13:52.595Z,11.43
2022-10-13T05:16:22.375Z,10.07
2022-10-13T05:18:50.880Z,12.57
2022-10-13T05:21:22.189Z,11.47
2022-10-13T05:23:54.174Z,12.02
2022-10-13T05:26:22.836Z,11.30
2022-10-13T05:28:51.740Z,11.98
2022-10-13T05:31:22.886Z,12.95
2022-10-13T05:33:52.975Z,13.17
2022-10-13T05:36:23.911Z,12.77
2022-10-13T05:38:56.547Z,13.38
2022-10-13T05:41:26.000Z,11.27
2022-10-13T05:43:59.051Z,11.18
2022-10-13T05:46:27.607Z,12.10
2022-10-13T05:48:55.708Z,11.93
2022-10-13T05:51:26.756Z,11.32
2022-10-13T05:54:02.637Z,11.57
2022-10-13T05:56:33.613Z,11.10
2022-10-13T05:59:05.603Z,13.07
2022-10-13T06:01:37.973Z,13.52
2022-10-13T06:04:09.190Z,12.07
2022-10-13T06:06:36.945Z,12.25
2022-10-13T06:09:07.016Z,11.55
2022-10-13T06:11:35.147Z,12.50
2022-10-13T06:14:02.991Z,11.27
2022-10-13T06:16:31.286Z,12.07
2022-10-13T06:18:59.152Z,10.88
2022-10-13T06:21:27.237Z,13.10
2022-10-13T06:23:55.814Z,13.77
2022-10-13T06:26:24.784Z,12.82
2022-10-13T06:28:58.414Z,12.43
2022-10-13T06:31:27.809Z,13.13
2022-10-13T06:33:56.238Z,14.00
2022-10-13T06:36:24.640Z,12.53
2022-10-13T06:38:52.993Z,12.57
2022-10-13T06:41:20.988Z,13.18
2022-10-13T06:43:51.081Z,14.57
2022-10-13T06:46:18.978Z,13.23
2022-10-13T06:48:47.865Z,15.10
2022-10-13T06:51:16.175Z,13.82
2022-10-13T06:53:44.144Z,14.05
2022-10-13T06:56:12.020Z,13.30
2022-10-13T06:58:41.088Z,13.10
2022-10-13T07:01:14.620Z,12.63
2022-10-13T07:03:42.512Z,12.95
2022-10-13T07:06:11.040Z,14.63
2022-10-13T07:08:38.891Z,12.80
2022-10-13T07:11:15.870Z,12.82
2022-10-13T07:13:46.686Z,13.40
2022-10-13T07:16:17.284Z,12.48
2022-10-13T07:18:45.279Z,14.38
2022-10-13T07:21:12.896Z,15.25
2022-10-13T07:23:41.492Z,14.57
2022-10-13T07:26:11.155Z,14.13
2022-10-13T07:28:40.304Z,12.55
2022-10-13T07:31:12.087Z,12.43
2022-10-13T07:33:42.478Z,13.15
2022-10-13T07:36:11.457Z,14.60
2022-10-13T07:38:39.661Z,13.77
2022-10-13T07:41:10.341Z,14.07
2022-10-13T07:43:38.487Z,13.73
2022-10-13T07:46:09.589Z,13.35
2022-10-13T07:48:37.326Z,13.32
2022-10-13T07:51:08.851Z,13.83
2022-10-13T07:53:37.811Z,14.00
2022-10-13T07:56:09.050Z,13.30
2022-10-13T07:58:40.194Z,14.02
2022-10-13T08:01:08.567Z,13.38
2022-10-13T08:06:13.228Z,13.73
2022-10-13T08:08:41.530Z,14.25
2022-10-13T08:11:16.201Z,13.52
2022-10-13T08:13:48.176Z,12.63
2022-10-13T08:16:16.575Z,12.17
2022-10-13T08:18:44.635Z,11.93
2022-10-13T08:24:07.084Z,12.68
2022-10-13T08:26:35.253Z,12.52
2022-10-13T08:31:53.485Z,11.48
2022-10-13T08:34:24.416Z,12.50
2022-10-13T08:36:56.209Z,11.68
2022-10-13T08:39:24.756Z,11.77
2022-10-13T08:41:53.336Z,11.83
2022-10-13T08:45:10.932Z,12.35
2022-10-13T08:47:21.834Z,13.02
2022-10-13T08:49:49.935Z,11.40
2022-10-13T08:52:22.537Z,11.50
2022-10-13T08:54:51.747Z,12.73
2022-10-13T08:57:21.711Z,12.77
2022-10-13T08:59:50.054Z,12.02
2022-10-13T09:02:27.241Z,12.95
2022-10-13T09:04:56.442Z,12.10
2022-10-13T09:07:29.543Z,12.13
2022-10-13T09:09:57.394Z,11.90
2022-10-13T09:12:26.863Z,12.10
2022-10-13T09:15:01.658Z,12.18
2022-10-13T09:17:31.012Z,11.43
2022-10-13T09:20:01.553Z,11.50
2022-10-13T09:22:32.345Z,11.13
2022-10-13T09:25:11.452Z,12.63
2022-10-13T09:27:48.016Z,11.95
2022-10-13T09:30:34.376Z,10.90
2022-10-13T09:33:26.145Z,11.47
2022-10-13T09:36:14.549Z,12.48
2022-10-13T09:38:46.413Z,11.02
2022-10-13T09:41:19.103Z,11.50
2022-10-13T09:44:01.250Z,13.55
2022-10-13T09:46:34.080Z,11.20
2022-10-13T09:49:06.084Z,10.77
2022-10-13T09:51:37.815Z,10.88
2022-10-13T09:54:08.591Z,10.32
2022-10-13T09:56:45.381Z,10.30
2022-10-13T09:59:22.756Z,10.07
2022-10-13T10:01:54.564Z,10.88
2022-10-13T10:04:27.263Z,10.40
2022-10-13T10:06:55.385Z,10.88
2022-10-13T10:09:38.417Z,10.13
2022-10-13T10:12:07.748Z,10.13
2022-10-13T10:14:38.040Z,10.35
2022-10-13T10:17:14.470Z,9.95
2022-10-13T10:19:53.103Z,11.10
2022-10-13T10:22:32.347Z,11.73
2022-10-13T10:25:10.735Z,10.60
2022-10-13T10:27:43.833Z,10.40
2022-10-13T10:30:16.919Z,9.55
2022-10-13T10:32:54.024Z,11.00
2022-10-13T10:35:29.604Z,10.40
2022-10-13T10:38:10.171Z,9.50
2022-10-13T10:40:48.143Z,8.85
2022-10-13T10:43:39.647Z,9.13
2022-10-13T10:46:14.881Z,10.02
2022-10-13T10:48:46.283Z,9.93
2022-10-13T10:51:15.644Z,7.77
2022-10-13T10:53:54.776Z,8.30
2022-10-13T10:56:32.736Z,8.98
2022-10-13T10:59:12.132Z,8.32
2022-10-13T11:01:45.738Z,8.85
2022-10-13T11:04:41.889Z,8.57
2022-10-13T11:08:02.899Z,7.45
2022-10-13T11:10:31.114Z,7.65
2022-10-13T11:13:27.912Z,7.97
2022-10-13T11:15:56.432Z,8.80
2022-10-13T11:19:10.144Z,7.83
2022-10-13T11:22:13.753Z,7.55
2022-10-13T11:24:57.295Z,8.00
2022-10-13T11:27:39.711Z,9.38
2022-10-13T11:30:47.346Z,9.32
2022-10-13T11:33:54.229Z,9.00
2022-10-13T11:36:50.811Z,7.43
2022-10-13T11:39:55.703Z,8.43
2022-10-13T11:42:55.605Z,8.20
2022-10-13T11:45:38.536Z,8.55
2022-10-13T11:52:07.753Z,7.20
2022-10-13T11:54:39.809Z,7.05
2022-10-13T11:57:19.316Z,7.05
2022-10-13T11:59:48.904Z,7.03
2022-10-13T12:02:19.262Z,7.53
2022-10-13T12:05:01.256Z,6.78
2022-10-13T12:07:35.688Z,6.90
2022-10-13T12:10:08.831Z,7.03
2022-10-13T12:12:36.754Z,8.32
2022-10-13T12:15:20.168Z,6.83
2022-10-13T12:17:47.854Z,7.00
2022-10-13T12:20:22.871Z,6.40
2022-10-13T12:22:53.358Z,5.85
2022-10-13T12:25:23.019Z,7.13
2022-10-13T12:27:54.877Z,6.53
2022-10-13T12:30:25.166Z,9.52
2022-10-13T12:32:55.118Z,7.82
2022-10-13T12:35:26.809Z,7.30
2022-10-13T12:37:57.704Z,7.72
2022-10-13T12:40:26.403Z,8.30
2022-10-13T12:42:55.901Z,7.50
2022-10-13T12:45:27.427Z,7.63
2022-10-13T12:47:55.925Z,7.13
2022-10-13T12:50:38.563Z,7.88
2022-10-13T12:53:17.237Z,7.47
2022-10-13T12:55:55.508Z,8.23
2022-10-13T12:58:27.748Z,6.97
2022-10-13T13:01:26.503Z,7.68
2022-10-13T13:04:00.639Z,7.35
2022-10-13T13:06:37.176Z,6.80
2022-10-13T13:09:31.833Z,6.68
2022-10-13T13:12:27.558Z,6.85
2022-10-13T13:14:56.289Z,6.40
2022-10-13T13:17:56.579Z,5.93
2022-10-13T13:20:27.648Z,6.60
2022-10-13T13:22:55.818Z,7.00
2022-10-13T13:25:25.724Z,6.82
2022-10-13T13:27:54.227Z,7.88
2022-10-13T13:30:23.644Z,7.07
2022-10-13T13:32:51.533Z,6.67
2022-10-13T13:35:19.854Z,6.88
2022-10-13T13:37:50.691Z,6.75
2022-10-13T13:40:21.097Z,5.75
2022-10-13T13:42:50.359Z,6.80
2022-10-13T13:45:19.690Z,6.50
2022-10-13T13:47:48.225Z,6.45
2022-10-13T13:50:19.863Z,6.65
2022-10-13T13:52:48.278Z,6.10
2022-10-13T13:55:16.573Z,6.90
2022-10-13T13:57:44.905Z,5.90
2022-10-13T14:00:16.633Z,6.20
2022-10-13T14:02:45.497Z,5.70
2022-10-13T14:05:13.679Z,5.10
2022-10-13T14:07:42.582Z,6.30
2022-10-13T14:10:11.740Z,6.23
2022-10-13T14:12:39.881Z,6.15
2022-10-13T14:15:09.063Z,6.55
2022-10-13T14:17:38.099Z,5.70
2022-10-13T14:20:07.091Z,5.72
2022-10-13T14:22:38.492Z,5.63
2022-10-13T14:25:07.308Z,5.90
2022-10-13T14:27:35.607Z,6.38
2022-10-13T14:30:03.840Z,5.90
2022-10-13T14:32:31.469Z,6.72
2022-10-13T14:35:01.419Z,5.63
2022-10-13T14:37:33.340Z,7.05
2022-10-13T14:40:01.796Z,6.00
2022-10-13T14:42:29.767Z,5.75
2022-10-13T14:44:57.453Z,4.65
2022-10-13T14:47:25.453Z,5.50
2022-10-13T14:49:53.249Z,5.38
2022-10-13T14:52:22.506Z,4.93
2022-10-13T14:54:50.152Z,5.13
2022-10-13T14:57:18.132Z,5.05
2022-10-13T14:59:48.138Z,4.60
2022-10-13T15:02:15.934Z,5.00
2022-10-13T15:04:43.677Z,4.97
2022-10-13T15:07:11.821Z,5.22
2022-10-13T15:10:07.342Z,5.15
2022-10-13T15:12:29.364Z,4.83
2022-10-13T15:14:57.293Z,5.57
2022-10-13T15:17:25.149Z,4.80
2022-10-13T15:19:52.909Z,5.68
2022-10-13T15:22:21.868Z,5.38
2022-10-13T15:24:51.633Z,5.17
2022-10-13T15:27:19.659Z,5.75
2022-10-13T15:29:47.544Z,5.90
2022-10-13T15:32:18.794Z,7.10
2022-10-13T15:34:47.979Z,6.22
2022-10-13T15:37:15.954Z,6.47
2022-10-13T15:39:44.458Z,5.35
2022-10-13T15:42:13.855Z,5.55
2022-10-13T15:47:30.349Z,8.98
2022-10-13T15:49:58.247Z,6.80
2022-10-13T15:52:28.639Z,6.15
2022-10-13T15:55:00.329Z,6.15
2022-10-13T15:57:29.531Z,5.80
2022-10-13T15:59:58.075Z,6.45
2022-10-13T16:02:29.764Z,6.07
2022-10-13T16:05:04.917Z,6.72
2022-10-13T16:07:33.147Z,8.18
2022-10-13T16:10:01.688Z,9.48
2022-10-13T16:12:30.739Z,8.68
2022-10-13T16:14:58.653Z,9.37
2022-10-13T16:17:28.225Z,8.98
2022-10-13T16:19:56.671Z,8.35
2022-10-13T16:22:27.220Z,8.52
2022-10-13T16:24:55.174Z,8.52
2022-10-13T16:27:24.139Z,7.47
2022-10-13T16:29:56.231Z,7.47
2022-10-13T16:32:24.347Z,8.80
2022-10-13T16:34:52.317Z,7.80
2022-10-13T16:37:20.419Z,8.27
2022-10-13T16:39:51.780Z,7.37
2022-10-13T16:42:19.888Z,8.02
2022-10-13T16:44:47.753Z,8.13
2022-10-13T16:47:18.612Z,7.05
2022-10-13T16:49:47.102Z,7.75
2022-10-13T16:52:14.920Z,8.97
2022-10-13T16:54:43.939Z,12.43
2022-10-13T16:57:11.916Z,14.27
2022-10-13T16:59:39.690Z,12.10
2022-10-13T17:02:08.129Z,11.60
2022-10-13T17:04:37.182Z,10.37
2022-10-13T17:07:05.089Z,10.35
2022-10-13T17:09:32.927Z,11.15
2022-10-13T17:12:00.610Z,10.32
2022-10-13T17:14:28.428Z,11.13
2022-10-13T17:16:57.992Z,12.07
2022-10-13T17:19:26.763Z,12.30
2022-10-13T17:21:55.836Z,11.63
2022-10-13T17:24:23.498Z,12.35
2022-10-13T17:26:51.609Z,12.25
2022-10-13T17:29:21.259Z,11.60
2022-10-13T17:31:49.331Z,12.10
2022-10-13T17:34:17.122Z,10.40
2022-10-13T17:36:44.897Z,12.38
2022-10-13T17:39:14.427Z,12.02
2022-10-13T17:41:42.467Z,11.77
2022-10-13T17:44:11.440Z,11.55
2022-10-13T17:46:40.133Z,12.30
2022-10-13T17:49:08.871Z,11.20
2022-10-13T17:51:36.876Z,10.50
2022-10-13T17:54:05.070Z,11.13
2022-10-13T17:56:35.124Z,12.77
2022-10-13T17:59:03.198Z,15.63
2022-10-13T18:01:32.974Z,14.98
2022-10-13T18:04:02.491Z,13.00
2022-10-13T18:06:37.966Z,12.50
2022-10-13T18:09:08.057Z,11.93
2022-10-13T18:11:38.282Z,11.93
2022-10-13T18:14:06.068Z,11.55
2022-10-13T18:16:34.749Z,11.40
2022-10-13T18:19:02.931Z,10.97
2022-10-13T18:21:30.874Z,19.90
2022-10-13T18:24:00.775Z,18.90
2022-10-13T18:26:31.767Z,15.27
2022-10-13T18:29:01.694Z,16.63
2022-10-13T18:31:32.032Z,16.07
2022-10-13T18:34:01.527Z,18.55
2022-10-13T18:36:31.787Z,17.92
2022-10-13T18:39:03.371Z,17.08
2022-10-13T18:41:33.117Z,17.02
2022-10-13T18:44:03.631Z,16.70
2022-10-13T18:46:31.965Z,16.70
2022-10-13T18:48:59.798Z,15.43
2022-10-13T18:51:33.376Z,16.00
2022-10-13T18:54:03.865Z,14.73
2022-10-13T18:56:33.052Z,15.07
2022-10-13T18:59:02.933Z,13.50
2022-10-13T19:01:32.857Z,13.35
2022-10-13T19:04:01.502Z,12.30
2022-10-13T19:06:32.229Z,12.88
2022-10-13T19:09:01.812Z,13.40
2022-10-13T19:11:30.336Z,13.15
2022-10-13T19:14:01.609Z,13.27
2022-10-13T19:16:32.893Z,11.98
2022-10-13T19:19:00.527Z,11.10
2022-10-13T19:21:28.633Z,11.30
2022-10-13T19:23:59.920Z,13.20
2022-10-13T19:26:30.965Z,12.63
2022-10-13T19:29:00.581Z,12.15
2022-10-13T19:31:31.816Z,12.40
2022-10-13T19:34:00.839Z,13.40
2022-10-13T19:36:33.164Z,14.23
2022-10-13T19:39:01.966Z,16.13
2022-10-13T19:41:31.746Z,14.90
2022-10-13T19:44:00.043Z,14.05
2022-10-13T19:46:28.133Z,13.10
2022-10-13T19:48:57.556Z,13.80
2022-10-13T19:51:25.617Z,15.98
2022-10-13T19:53:53.462Z,16.23
2022-10-13T19:56:23.832Z,14.25
2022-10-13T19:58:53.058Z,16.77
2022-10-13T20:01:23.065Z,15.57
2022-10-13T20:03:51.382Z,15.20
2022-10-13T20:06:21.769Z,13.20
2022-10-13T20:08:50.224Z,13.93
2022-10-13T20:11:23.894Z,13.97
2022-10-13T20:13:53.096Z,13.68
2022-10-13T20:16:25.916Z,15.20
2022-10-13T20:18:55.856Z,15.60
2022-10-13T20:21:26.171Z,16.27
2022-10-13T20:23:55.659Z,15.73
2022-10-13T20:26:23.821Z,13.60
2022-10-13T20:28:52.949Z,12.40
2022-10-13T20:31:25.633Z,11.40
2022-10-13T20:33:55.183Z,11.93
2022-10-13T20:36:28.747Z,11.60
2022-10-13T20:38:57.021Z,11.02
2022-10-13T20:41:27.353Z,11.98
2022-10-13T20:43:56.941Z,11.30
2022-10-13T20:46:27.678Z,11.52
2022-10-13T20:49:12.915Z,11.43
2022-10-13T20:51:43.590Z,11.27
2022-10-13T20:54:12.360Z,12.80
2022-10-13T20:56:40.422Z,14.05
2022-10-13T20:59:11.593Z,14.13
2022-10-13T21:01:39.554Z,16.30
2022-10-13T21:04:07.577Z,16.15
2022-10-13T21:06:36.005Z,14.70
2022-10-13T21:09:06.719Z,15.15
2022-10-13T21:11:35.130Z,12.07
2022-10-13T21:14:06.835Z,10.73
2022-10-13T21:16:35.201Z,11.82
2022-10-13T21:19:04.159Z,11.93
2022-10-13T21:21:34.884Z,13.65
2022-10-13T21:24:06.997Z,14.07
2022-10-13T21:26:35.614Z,21.13
2022-10-13T21:29:03.946Z,17.75
2022-10-13T21:31:32.277Z,12.18
2022-10-13T21:34:01.151Z,11.60
2022-10-13T21:36:31.425Z,10.43
2022-10-13T21:39:01.616Z,10.33
2022-10-13T21:41:30.902Z,11.20
2022-10-13T21:43:59.596Z,12.05
2022-10-13T21:46:30.805Z,12.05
2022-10-13T21:49:00.836Z,11.70
2022-10-13T21:51:31.562Z,11.47
2022-10-13T21:54:03.351Z,10.20
2022-10-13T21:56:33.756Z,9.88
2022-10-13T21:59:04.521Z,9.70
2022-10-13T22:01:33.718Z,10.02
2022-10-13T22:04:03.130Z,11.23
2022-10-13T22:06:32.943Z,10.88
2022-10-13T22:09:02.081Z,11.52
2022-10-13T22:11:34.129Z,10.75
2022-10-13T22:14:02.063Z,10.73
2022-10-13T22:16:33.559Z,10.33
2022-10-13T22:19:01.701Z,10.57
2022-10-13T22:21:32.138Z,10.77
2022-10-13T22:24:02.166Z,10.38
2022-10-13T22:26:35.725Z,9.88
2022-10-13T22:29:05.830Z,9.40
2022-10-13T22:31:36.796Z,9.95
2022-10-13T22:34:06.058Z,10.75
2022-10-13T22:36:34.687Z,9.55
2022-10-13T22:39:04.742Z,9.18
2022-10-13T22:41:35.535Z,8.70
2022-10-13T22:44:03.973Z,8.55
2022-10-13T22:46:34.966Z,8.82
2022-10-13T22:49:02.917Z,9.00
2022-10-13T22:51:34.525Z,8.43
2022-10-13T22:54:02.468Z,8.63
2022-10-13T22:56:32.896Z,9.07
2022-10-13T22:59:03.532Z,9.35
2022-10-13T23:01:33.788Z,9.88
2022-10-13T23:04:02.158Z,9.88
2022-10-13T23:06:31.518Z,9.57
2022-10-13T23:09:01.424Z,9.85
2022-10-13T23:11:29.720Z,10.63
2022-10-13T23:13:57.353Z,9.52
2022-10-13T23:16:27.757Z,9.40
2022-10-13T23:18:55.898Z,9.80
2022-10-13T23:21:26.277Z,10.43
2022-10-13T23:23:57.673Z,10.52
2022-10-13T23:26:26.439Z,9.50
2022-10-13T23:28:54.453Z,10.82
2022-10-13T23:31:22.629Z,10.87
2022-10-13T23:33:52.039Z,10.70
2022-10-13T23:36:21.815Z,10.45
2022-10-13T23:38:50.595Z,9.95
2022-10-13T23:41:18.306Z,10.73
2022-10-13T23:43:46.267Z,10.13
2022-10-13T23:46:14.477Z,10.77
2022-10-13T23:48:42.774Z,10.95
2022-10-13T23:51:14.952Z,10.25
2022-10-13T23:53:43.585Z,11.20
2022-10-13T23:56:13.647Z,11.07
2022-10-13T23:58:43.107Z,11.02
